Time;durP1;ratioP1;P1;durP2;ratioP2;P2;SDS_P1;SDS_P2;PMS_P1;PMS_P2;Temp;Humidity;BMP_temperature;BMP_pressure;BME280_temperature;BME280_humidity;BME280_pressure;Samples;Min_cycle;Max_cycle;Signal;HPM_P1;HPM_P2
2023/04/05 00:00:28;;;;;;;22.35;14.00;;;;;;;6.04;58.10;102364.03;5052509;28;20025;-45
2023/04/05 00:02:56;;;;;;;23.00;14.52;;;;;;;6.04;58.76;102360.44;5052734;28;20504;-43
2023/04/05 00:05:28;;;;;;;22.88;13.48;;;;;;;6.02;58.87;102355.19;5052508;28;20029;-42
2023/04/05 00:07:55;;;;;;;22.00;13.60;;;;;;;5.99;58.71;102368.53;5034623;28;20029;-42
2023/04/05 00:10:20;;;;;;;20.52;13.93;;;;;;;5.93;58.86;102368.41;5052441;28;20031;-43
2023/04/05 00:12:46;;;;;;;22.40;13.93;;;;;;;5.80;59.25;102368.63;5052468;28;20108;-42
2023/04/05 00:15:11;;;;;;;21.42;13.98;;;;;;;5.73;59.69;102371.47;5052540;28;20361;-43
2023/04/05 00:17:36;;;;;;;22.70;13.98;;;;;;;5.67;59.70;102366.09;5052443;28;20091;-42
2023/04/05 00:20:06;;;;;;;22.50;14.75;;;;;;;5.58;60.45;102369.19;5052115;28;20036;-42
2023/04/05 00:22:34;;;;;;;22.75;14.32;;;;;;;5.50;60.81;102366.78;5052371;28;20032;-42
2023/04/05 00:25:00;;;;;;;22.38;14.18;;;;;;;5.50;61.37;102366.78;5051454;28;20021;-42
2023/04/05 00:27:26;;;;;;;22.73;14.10;;;;;;;5.47;61.33;102365.34;5051784;28;20094;-41
2023/04/05 00:29:51;;;;;;;21.05;13.38;;;;;;;5.50;61.58;102360.44;5052020;28;20033;-42
2023/04/05 00:32:16;;;;;;;23.05;14.68;;;;;;;5.52;61.99;102361.03;5051856;28;20123;-43
2023/04/05 00:34:42;;;;;;;23.75;14.10;;;;;;;5.47;61.71;102350.78;5051815;28;20021;-42
2023/04/05 00:37:07;;;;;;;22.70;14.80;;;;;;;5.44;61.55;102357.56;5047256;28;20025;-42
2023/04/05 00:39:32;;;;;;;22.48;14.38;;;;;;;5.46;61.87;102351.84;5051970;28;20374;-42
2023/04/05 00:41:57;;;;;;;22.05;14.38;;;;;;;5.42;62.00;102345.97;5051354;28;20036;-42
2023/04/05 00:44:23;;;;;;;21.17;13.95;;;;;;;5.38;62.13;102349.44;5051914;28;20078;-42
2023/04/05 00:46:48;;;;;;;21.30;13.98;;;;;;;5.38;62.67;102346.69;5051907;28;20025;-41
2023/04/05 00:49:14;;;;;;;21.98;13.10;;;;;;;5.47;62.02;102350.78;5017510;28;20079;-41
2023/04/05 00:51:40;;;;;;;21.63;13.63;;;;;;;5.46;62.11;102349.09;5051992;28;20083;-42
2023/04/05 00:54:07;;;;;;;22.45;14.60;;;;;;;5.45;62.12;102344.66;5051980;28;20040;-42
2023/04/05 00:56:33;;;;;;;21.75;14.30;;;;;;;5.42;62.43;102343.25;5051849;28;20082;-43
2023/04/05 00:58:59;;;;;;;21.85;13.65;;;;;;;5.38;62.68;102342.03;5051954;28;20029;-43
2023/04/05 01:01:26;;;;;;;22.35;13.88;;;;;;;5.38;62.51;102349.44;5051693;28;20036;-42
2023/04/05 01:03:58;;;;;;;23.20;14.88;;;;;;;5.36;61.97;102344.19;5052009;28;20104;-41
2023/04/05 01:06:47;;;;;;;21.85;13.90;;;;;;;5.41;61.41;102346.22;5052146;28;20108;-42
2023/04/05 01:09:46;;;;;;;21.63;14.68;;;;;;;5.32;61.93;102342.97;5056212;28;20600;-43
2023/04/05 01:12:18;;;;;;;21.75;14.15;;;;;;;5.13;62.97;102339.44;5071847;28;20063;-42
2023/04/05 01:14:51;;;;;;;21.10;13.90;;;;;;;4.98;63.04;102326.97;5071537;28;20024;-42
2023/04/05 01:17:22;;;;;;;22.00;14.95;;;;;;;4.93;62.34;102339.72;5071798;28;20027;-43
2023/04/05 01:20:11;;;;;;;21.85;14.45;;;;;;;4.87;62.03;102330.50;5071469;28;20028;-41
2023/04/05 01:23:05;;;;;;;23.20;14.55;;;;;;;4.87;62.20;102335.16;5060945;28;20092;-41
2023/04/05 01:25:35;;;;;;;21.13;14.17;;;;;;;4.82;62.75;102335.84;5053346;28;20370;-41
2023/04/05 01:28:17;;;;;;;22.40;14.57;;;;;;;4.73;62.69;102329.81;5071698;28;20057;-42
2023/04/05 01:30:51;;;;;;;22.65;15.35;;;;;;;4.57;62.65;102322.22;5071384;28;20064;-41
2023/04/05 01:33:22;;;;;;;;;;;;;;;4.77;61.87;102336.53;5054077;28;20082;-41
2023/04/05 01:35:56;;;;;;;22.80;15.63;;;;;;;4.66;63.21;102331.81;5071798;28;20448;-41
2023/04/05 01:38:24;;;;;;;23.20;15.98;;;;;;;4.67;63.35;102326.13;5071360;28;20483;-41
2023/04/05 01:40:50;;;;;;;22.50;15.73;;;;;;;4.69;63.47;102325.88;5074905;28;20025;-41
2023/04/05 01:43:17;;;;;;;23.52;15.32;;;;;;;4.68;63.17;102318.72;5075170;28;20036;-41
2023/04/05 01:45:43;;;;;;;22.65;15.90;;;;;;;4.67;62.60;102317.06;5074844;28;20039;-41
2023/04/05 01:48:09;;;;;;;22.77;15.05;;;;;;;4.66;63.35;102309.88;5075167;28;20033;-42
2023/04/05 01:50:34;;;;;;;25.02;15.80;;;;;;;4.61;62.77;102307.84;5074914;28;20082;-42
2023/04/05 01:53:00;;;;;;;24.50;15.55;;;;;;;4.58;63.21;102312.94;5074881;28;20027;-42
2023/04/05 01:55:25;;;;;;;22.17;15.10;;;;;;;4.51;62.64;102307.53;5074563;28;20028;-42
2023/04/05 01:57:51;;;;;;;23.33;15.63;;;;;;;4.47;63.08;102312.66;5074822;28;20028;-41
2023/04/05 02:00:16;;;;;;;22.73;14.95;;;;;;;4.42;63.65;102312.50;5074696;28;20074;-42
2023/04/05 02:02:42;;;;;;;22.70;14.50;;;;;;;4.35;63.03;102307.09;5075059;28;20044;-42
2023/04/05 02:05:07;;;;;;;23.20;15.18;;;;;;;4.44;63.23;102315.00;5074652;28;20406;-42
2023/04/05 02:07:33;;;;;;;23.10;14.40;;;;;;;4.46;63.43;102304.66;5074659;28;20446;-42
2023/04/05 02:09:58;;;;;;;22.55;14.02;;;;;;;4.45;63.37;102313.94;5074478;28;20036;-42
2023/04/05 02:12:23;;;;;;;23.88;14.25;;;;;;;4.43;63.47;102310.59;5074506;28;20031;-41
2023/04/05 02:14:50;;;;;;;22.48;14.38;;;;;;;4.45;64.30;102301.06;5074333;28;20036;-43
2023/04/05 02:17:16;;;;;;;21.95;13.63;;;;;;;4.46;63.94;102307.41;5074828;28;20025;-42
2023/04/05 02:19:44;;;;;;;21.60;13.98;;;;;;;4.45;63.63;102295.59;5074414;28;20025;-42
2023/04/05 02:22:11;;;;;;;23.92;14.30;;;;;;;4.34;63.64;102288.97;5057424;28;20036;-42
2023/04/05 02:24:36;;;;;;;21.63;13.35;;;;;;;4.38;65.08;102297.56;5057849;28;20040;-41
2023/04/05 02:27:02;;;;;;;21.00;13.55;;;;;;;4.39;64.58;102298.44;5074305;28;20097;-43
2023/04/05 02:29:27;;;;;;;21.63;14.20;;;;;;;4.32;64.68;102299.31;5073926;28;20040;-44
2023/04/05 02:31:52;;;;;;;21.80;14.20;;;;;;;4.28;65.37;102289.06;5074468;28;20033;-42
2023/04/05 02:34:18;;;;;;;22.10;14.25;;;;;;;4.18;64.42;102290.41;5073984;28;20027;-42
2023/04/05 02:36:43;;;;;;;21.95;14.15;;;;;;;4.18;64.23;102297.81;5071658;28;20094;-41
2023/04/05 02:39:08;;;;;;;23.27;14.45;;;;;;;4.10;64.92;102287.16;5072827;28;20533;-42
2023/04/05 02:41:35;;;;;;;21.50;14.32;;;;;;;4.06;64.47;102295.00;5073856;28;20457;-43
2023/04/05 02:44:00;;;;;;;22.27;14.45;;;;;;;4.03;64.65;102285.31;5074061;28;20116;-42
2023/04/05 02:46:26;;;;;;;22.60;13.90;;;;;;;4.03;64.89;102298.16;5073833;28;20095;-41
2023/04/05 02:48:51;;;;;;;21.50;14.55;;;;;;;3.96;64.82;102281.81;5073389;28;20036;-41
2023/04/05 02:51:16;;;;;;;21.77;14.05;;;;;;;3.77;66.62;102266.41;5073639;28;20420;-41
2023/04/05 02:53:43;;;;;;;20.85;13.63;;;;;;;3.84;65.56;102289.06;5073872;28;20063;-42
2023/04/05 02:56:10;;;;;;;22.13;14.35;;;;;;;3.72;66.20;102289.84;5073583;28;20410;-41
2023/04/05 02:58:36;;;;;;;21.83;14.90;;;;;;;3.67;66.92;102275.16;5074101;28;20036;-41
2023/04/05 03:01:04;;;;;;;21.75;14.85;;;;;;;3.61;67.23;102274.13;5073423;28;20021;-42
2023/04/05 03:03:30;;;;;;;22.83;14.65;;;;;;;3.41;67.42;102256.00;5073569;28;20035;-42
2023/04/05 03:06:08;;;;;;;21.85;14.30;;;;;;;3.55;67.37;102275.00;5073318;28;20107;-42
2023/04/05 03:08:36;;;;;;;21.30;14.60;;;;;;;3.47;67.31;102254.25;5073306;28;20416;-43
2023/04/05 03:11:01;;;;;;;22.83;14.15;;;;;;;3.56;67.21;102280.28;5073317;28;20039;-42
2023/04/05 03:13:27;;;;;;;22.25;13.90;;;;;;;3.51;67.15;102268.34;5073354;28;20032;-43
2023/04/05 03:15:53;;;;;;;21.52;13.52;;;;;;;3.53;66.76;102275.25;5073025;28;20032;-42
2023/04/05 03:18:19;;;;;;;22.98;14.60;;;;;;;3.46;67.46;102260.78;5055200;28;20387;-43
2023/04/05 03:20:49;;;;;;;22.10;14.27;;;;;;;3.44;67.08;102260.16;5072522;28;20031;-42
2023/04/05 03:23:15;;;;;;;21.40;13.77;;;;;;;3.43;67.67;102262.09;5072744;28;20112;-43
2023/04/05 03:25:40;;;;;;;24.55;14.43;;;;;;;3.38;67.72;102250.97;5054527;28;20107;-45
2023/04/05 03:28:08;;;;;;;22.55;13.85;;;;;;;3.40;66.98;102253.50;5072590;28;20373;-42
2023/04/05 03:30:37;;;;;;;22.50;14.50;;;;;;;3.40;67.84;102258.97;5072661;28;20062;-44
2023/04/05 03:33:03;;;;;;;22.58;14.80;;;;;;;3.40;67.45;102256.22;5072721;28;20032;-49
2023/04/05 03:35:29;;;;;;;23.10;14.43;;;;;;;3.39;67.63;102262.75;5072588;28;20024;-43
2023/04/05 03:37:55;;;;;;;21.92;14.35;;;;;;;3.36;68.23;102260.44;5067754;28;20024;-51
2023/04/05 03:40:21;;;;;;;24.27;15.10;;;;;;;3.30;68.11;102262.19;5072515;28;20470;-43
2023/04/05 03:42:47;;;;;;;24.98;14.85;;;;;;;3.25;67.83;102259.28;5072554;28;20111;-42
2023/04/05 03:45:12;;;;;;;22.02;14.63;;;;;;;3.16;68.56;102255.16;5072575;28;20129;-42
2023/04/05 03:47:37;;;;;;;21.23;14.00;;;;;;;3.15;68.97;102250.72;5072367;28;20691;-42
2023/04/05 03:50:03;;;;;;;21.73;14.27;;;;;;;3.10;68.57;102256.88;5072083;28;20397;-42
2023/04/05 03:52:29;;;;;;;23.23;14.82;;;;;;;2.85;68.94;102218.53;5072237;28;20184;-42
2023/04/05 03:54:54;;;;;;;21.98;14.70;;;;;;;3.10;69.74;102246.75;5072233;28;20389;-42
2023/04/05 03:57:19;;;;;;;22.25;14.55;;;;;;;3.10;69.28;102251.41;5072275;28;20032;-43
2023/04/05 03:59:45;;;;;;;23.05;14.13;;;;;;;3.09;69.19;102245.06;5072316;28;20028;-42
2023/04/05 04:02:10;;;;;;;22.23;14.50;;;;;;;3.00;69.17;102238.19;5052649;28;20112;-43
2023/04/05 04:04:35;;;;;;;25.25;14.40;;;;;;;2.98;69.13;102243.03;5052232;28;20347;-42
2023/04/05 04:07:01;;;;;;;25.00;14.88;;;;;;;2.91;68.92;102244.97;5052265;28;20064;-46
2023/04/05 04:09:28;;;;;;;23.25;14.90;;;;;;;2.85;68.65;102243.16;5052228;28;20082;-42
2023/04/05 04:11:54;;;;;;;22.88;15.65;;;;;;;2.81;69.39;102249.03;5052292;28;20060;-43
2023/04/05 04:14:19;;;;;;;23.50;15.02;;;;;;;2.77;68.86;102241.50;5052097;28;20508;-44
2023/04/05 04:16:44;;;;;;;22.75;14.50;;;;;;;2.73;69.33;102240.28;5052126;28;20036;-42
2023/04/05 04:19:10;;;;;;;23.20;15.02;;;;;;;2.78;69.18;102245.91;5052241;28;20390;-44
2023/04/05 04:21:38;;;;;;;23.33;15.38;;;;;;;2.72;69.71;102231.22;5051835;28;20042;-43
2023/04/05 04:24:04;;;;;;;22.13;14.63;;;;;;;2.75;69.42;102235.41;5052227;28;20028;-43
2023/04/05 04:26:29;;;;;;;23.05;14.98;;;;;;;2.70;69.27;102225.13;5051974;28;20383;-43
2023/04/05 04:28:55;;;;;;;23.63;15.38;;;;;;;2.78;69.05;102232.25;5051680;28;20041;-43
2023/04/05 04:31:21;;;;;;;24.40;14.88;;;;;;;2.76;69.14;102231.63;5051856;28;20044;-44
2023/04/05 04:33:48;;;;;;;23.50;14.55;;;;;;;2.71;69.21;102240.47;5051762;28;20025;-43
2023/04/05 04:36:16;;;;;;;22.05;14.35;;;;;;;2.66;69.48;102234.84;5051712;28;20056;-43
2023/04/05 04:38:43;;;;;;;23.30;14.27;;;;;;;2.67;69.50;102247.44;5047165;28;20029;-42
2023/04/05 04:41:12;;;;;;;23.27;14.55;;;;;;;2.66;69.38;102243.03;5060432;28;20032;-42
2023/04/05 04:43:42;;;;;;;22.90;14.75;;;;;;;2.64;69.95;102243.28;5071689;28;20069;-42
2023/04/05 04:46:13;;;;;;;23.38;15.00;;;;;;;2.61;69.96;102238.22;5053211;28;20039;-42
2023/04/05 04:48:41;;;;;;;22.95;15.27;;;;;;;2.67;69.87;102241.13;5071390;28;20032;-42
2023/04/05 04:51:06;;;;;;;23.58;15.85;;;;;;;2.68;69.78;102242.81;5071422;28;20051;-42
2023/04/05 04:53:32;;;;;;;22.08;15.35;;;;;;;2.69;70.00;102241.75;5071590;28;20062;-41
2023/04/05 04:55:57;;;;;;;23.05;15.40;;;;;;;2.67;70.22;102244.72;5064777;28;20033;-42
2023/04/05 04:58:22;;;;;;;24.98;16.52;;;;;;;2.65;69.65;102244.91;5051387;28;20044;-42
2023/04/05 05:00:47;;;;;;;23.80;15.70;;;;;;;2.63;70.02;102233.38;5051429;28;20025;-41
2023/04/05 05:03:13;;;;;;;22.75;15.65;;;;;;;2.67;70.24;102246.59;5051319;28;20037;-42
2023/04/05 05:05:46;;;;;;;23.67;15.48;;;;;;;2.66;70.04;102237.56;5051091;28;20031;-41
2023/04/05 05:08:12;;;;;;;24.10;15.95;;;;;;;2.64;69.60;102242.41;5051186;28;20386;-42
2023/04/05 05:10:38;;;;;;;23.77;16.20;;;;;;;2.63;70.38;102236.13;5051288;28;20052;-42
2023/04/05 05:13:03;;;;;;;24.10;16.20;;;;;;;2.64;70.81;102234.22;5055270;28;20041;-43
2023/04/05 05:15:28;;;;;;;24.92;16.23;;;;;;;2.62;70.41;102242.63;5055227;28;20171;-42
2023/04/05 05:17:54;;;;;;;24.95;16.38;;;;;;;2.62;71.04;102237.19;5055106;28;20443;-43
2023/04/05 05:20:20;;;;;;;25.55;15.90;;;;;;;2.63;71.05;102233.38;5055063;28;20040;-43
2023/04/05 05:22:45;;;;;;;25.52;16.42;;;;;;;2.65;70.63;102242.19;5055146;28;20033;-42
2023/04/05 05:25:11;;;;;;;24.52;15.45;;;;;;;2.69;71.16;102239.03;5055253;28;20448;-43
2023/04/05 05:27:37;;;;;;;25.95;15.60;;;;;;;2.76;71.27;102242.56;5054037;28;20035;-42
2023/04/05 05:30:03;;;;;;;24.48;15.55;;;;;;;2.84;72.57;102238.72;5055086;28;20021;-42
2023/04/05 05:32:28;;;;;;;24.95;15.60;;;;;;;2.91;72.70;102229.44;5055017;28;20056;-43
2023/04/05 05:34:54;;;;;;;23.65;16.00;;;;;;;3.03;72.56;102231.44;5051039;28;20083;-43
2023/04/05 05:37:28;;;;;;;25.70;17.02;;;;;;;3.09;71.92;102236.03;5056058;28;20030;-44
2023/04/05 05:39:53;;;;;;;26.10;18.00;;;;;;;3.07;71.02;102229.94;5074576;23;20056;-41
2023/04/05 05:42:20;;;;;;;26.35;17.88;;;;;;;3.01;70.83;102228.94;5074222;28;20028;-42
2023/04/05 05:44:45;;;;;;;26.60;17.00;;;;;;;2.95;70.98;102225.19;5074455;28;20031;-41
2023/04/05 05:47:10;;;;;;;23.88;16.15;;;;;;;2.94;71.63;102228.97;5074582;28;20103;-42
2023/04/05 05:49:36;;;;;;;25.75;16.27;;;;;;;3.00;71.05;102226.44;5074578;28;20025;-44
2023/04/05 05:52:02;;;;;;;25.60;15.95;;;;;;;2.96;70.85;102232.34;5074380;28;20032;-40
2023/04/05 05:54:27;;;;;;;23.67;15.77;;;;;;;2.95;71.67;102233.38;5074501;28;20056;-41
2023/04/05 05:56:53;;;;;;;25.73;16.77;;;;;;;2.99;71.99;102230.22;5074341;28;20087;-43
2023/04/05 05:59:18;;;;;;;24.33;15.70;;;;;;;3.02;71.68;102225.16;5074500;28;20469;-43
2023/04/05 06:01:45;;;;;;;23.83;16.02;;;;;;;3.08;71.97;102234.38;5074710;28;20028;-42
2023/04/05 06:04:11;;;;;;;22.95;15.70;;;;;;;3.30;72.55;102234.00;5074826;28;20025;-42
2023/04/05 06:06:36;;;;;;;24.38;15.40;;;;;;;3.33;72.38;102233.53;5073026;28;20035;-43
2023/04/05 06:09:02;;;;;;;24.02;15.48;;;;;;;3.48;72.21;102223.09;5074520;28;20032;-41
2023/04/05 06:11:27;;;;;;;25.05;15.88;;;;;;;3.55;71.45;102231.22;5074458;28;20024;-41
2023/04/05 06:13:56;;;;;;;24.92;15.45;;;;;;;3.62;70.56;102242.13;5074351;28;20025;-42
2023/04/05 06:16:21;;;;;;;24.20;16.10;;;;;;;3.64;70.86;102237.28;5074398;28;20054;-42
2023/04/05 06:18:47;;;;;;;24.05;16.20;;;;;;;3.63;69.86;102230.97;5073299;28;20123;-41
2023/04/05 06:21:13;;;;;;;31.52;17.05;;;;;;;3.75;69.65;102236.53;5082695;28;20028;-44
2023/04/05 06:23:40;;;;;;;26.33;16.23;;;;;;;3.77;69.33;102228.94;5093608;28;20028;-42
2023/04/05 06:26:06;;;;;;;31.65;17.73;;;;;;;3.93;68.61;102243.91;5094343;28;20056;-43
2023/04/05 06:28:32;;;;;;;24.30;16.17;;;;;;;4.02;67.95;102239.00;5094609;28;20073;-44
2023/04/05 06:30:58;;;;;;;29.45;16.77;;;;;;;4.14;68.66;102239.91;5093039;28;20620;-42
2023/04/05 06:33:23;;;;;;;25.70;16.05;;;;;;;4.19;67.48;102244.69;5094513;28;20032;-42
2023/04/05 06:35:49;;;;;;;23.63;15.68;;;;;;;4.21;67.36;102243.41;5093412;28;20357;-42
2023/04/05 06:38:14;;;;;;;25.65;16.73;;;;;;;4.24;66.78;102249.50;5093175;28;20492;-42
2023/04/05 06:40:40;;;;;;;24.67;16.90;;;;;;;4.23;66.11;102240.41;5091616;28;20028;-42
2023/04/05 06:43:05;;;;;;;25.20;16.27;;;;;;;4.27;66.19;102240.78;5090651;28;20035;-42
2023/04/05 06:45:31;;;;;;;23.88;15.82;;;;;;;4.28;65.52;102240.59;5091858;28;20063;-45
2023/04/05 06:47:56;;;;;;;22.98;15.30;;;;;;;4.30;64.70;102245.81;5075191;28;20043;-43
2023/04/05 06:50:22;;;;;;;24.13;16.02;;;;;;;4.32;64.98;102243.69;5071097;28;20036;-42
2023/04/05 06:52:47;;;;;;;26.90;17.05;;;;;;;4.29;64.21;102246.91;5086913;28;20040;-42
2023/04/05 06:55:12;;;;;;;24.60;16.73;;;;;;;4.26;64.98;102237.25;5092746;28;20060;-43
2023/04/05 06:57:38;;;;;;;24.75;16.25;;;;;;;4.37;65.10;102246.56;5092156;28;20024;-42
2023/04/05 07:00:10;;;;;;;26.27;17.55;;;;;;;4.41;64.76;102246.94;5092223;28;20035;-42
2023/04/05 07:02:36;;;;;;;24.42;16.83;;;;;;;4.47;63.85;102243.31;5089868;28;20105;-42
2023/04/05 07:05:03;;;;;;;24.00;16.60;;;;;;;4.48;63.34;102250.47;5084962;28;20024;-42
2023/04/05 07:07:29;;;;;;;26.05;17.63;;;;;;;4.46;63.86;102242.47;5089114;28;20027;-42
2023/04/05 07:09:54;;;;;;;25.05;17.08;;;;;;;4.51;63.94;102260.94;5089425;28;20039;-41
2023/04/05 07:12:19;;;;;;;25.70;17.75;;;;;;;4.56;64.11;102252.88;5091252;28;20036;-41
2023/04/05 07:14:45;;;;;;;23.73;16.13;;;;;;;4.63;63.46;102248.16;5091813;28;20046;-42
2023/04/05 07:17:10;;;;;;;24.70;17.23;;;;;;;4.67;63.08;102251.25;5091879;28;20044;-42
2023/04/05 07:19:35;;;;;;;25.90;17.38;;;;;;;4.69;63.14;102249.94;5092179;28;20201;-42
2023/04/05 07:22:01;;;;;;;24.23;17.35;;;;;;;4.74;63.98;102248.44;5090188;28;20493;-44
2023/04/05 07:24:26;;;;;;;25.20;17.02;;;;;;;4.79;63.49;102243.06;5091800;28;20035;-42
2023/04/05 07:26:51;;;;;;;23.55;16.92;;;;;;;4.87;63.27;102250.16;5091648;28;20036;-42
2023/04/05 07:29:17;;;;;;;24.23;16.48;;;;;;;4.89;63.46;102258.97;5083415;28;20033;-42
2023/04/05 07:31:42;;;;;;;25.13;17.70;;;;;;;4.97;63.21;102258.66;5071554;28;20029;-43
2023/04/05 07:34:08;;;;;;;25.13;17.27;;;;;;;5.03;62.63;102254.97;5071306;28;20119;-42
2023/04/05 07:36:33;;;;;;;24.83;16.83;;;;;;;5.12;62.45;102250.00;5072605;28;20029;-42
2023/04/05 07:38:59;;;;;;;24.88;16.88;;;;;;;5.08;62.41;102241.41;5091599;28;20051;-42
2023/04/05 07:41:26;;;;;;;24.88;16.85;;;;;;;5.15;62.60;102247.59;5091692;28;20024;-44
2023/04/05 07:43:52;;;;;;;25.48;17.23;;;;;;;5.21;62.45;102245.84;5091910;28;20028;-43
2023/04/05 07:46:17;;;;;;;23.92;16.30;;;;;;;5.25;62.11;102247.03;5091581;28;20040;-42
2023/04/05 07:48:45;;;;;;;24.10;17.05;;;;;;;5.28;61.67;102253.97;5091406;28;20028;-42
2023/04/05 07:51:11;;;;;;;25.70;17.33;;;;;;;5.26;62.10;102240.47;5090051;28;20064;-42
2023/04/05 07:53:36;;;;;;;23.70;16.98;;;;;;;5.18;62.47;102215.28;5091219;28;20070;-41
2023/04/05 07:56:06;;;;;;;25.30;16.88;;;;;;;5.45;62.16;102245.84;5091259;28;20024;-42
2023/04/05 07:58:33;;;;;;;24.30;16.65;;;;;;;5.51;60.70;102250.41;5091137;28;20036;-43
2023/04/05 08:01:00;;;;;;;23.10;16.60;;;;;;;5.55;60.60;102242.53;5089834;28;20047;-42
2023/04/05 08:03:26;;;;;;;25.92;17.52;;;;;;;5.68;59.69;102239.53;5090995;28;20111;-43
2023/04/05 08:05:51;;;;;;;24.60;16.25;;;;;;;5.72;60.15;102240.75;5091133;28;20103;-41
2023/04/05 08:08:16;;;;;;;23.35;16.45;;;;;;;5.78;59.21;102242.53;5075797;28;20454;-42
2023/04/05 08:10:42;;;;;;;24.10;16.75;;;;;;;5.82;59.81;102242.88;5070624;28;20571;-43
2023/04/05 08:13:07;;;;;;;22.83;15.63;;;;;;;5.84;58.95;102234.41;5070971;28;20044;-44
2023/04/05 08:15:33;;;;;;;25.42;16.88;;;;;;;5.90;58.00;102242.50;5070721;28;20060;-42
2023/04/05 08:17:58;;;;;;;24.20;16.60;;;;;;;5.93;58.54;102244.78;5070881;28;20202;-43
2023/04/05 08:20:24;;;;;;;24.25;16.08;;;;;;;5.98;58.39;102238.56;5070574;28;20032;-42
2023/04/05 08:22:49;;;;;;;23.63;16.58;;;;;;;6.05;58.97;102247.53;5072045;28;20023;-42
2023/04/05 08:25:14;;;;;;;24.52;16.73;;;;;;;6.09;58.33;102242.44;5090664;28;20482;-42
2023/04/05 08:27:40;;;;;;;24.52;16.75;;;;;;;6.13;59.59;102249.09;5090703;28;20081;-43
2023/04/05 08:30:06;;;;;;;24.33;16.08;;;;;;;6.18;58.93;102240.97;5089551;28;20040;-43
2023/04/05 08:32:33;;;;;;;24.08;16.58;;;;;;;6.22;58.96;102236.66;5081788;28;20059;-42
2023/04/05 08:34:58;;;;;;;24.77;15.93;;;;;;;6.31;58.03;102241.78;5070816;28;20036;-43
2023/04/05 08:37:23;;;;;;;24.13;16.95;;;;;;;6.37;58.83;102241.63;5076641;28;20028;-43
2023/04/05 08:39:48;;;;;;;22.33;15.45;;;;;;;6.44;58.62;102236.00;5090959;28;20175;-42
2023/04/05 08:42:17;;;;;;;25.67;16.13;;;;;;;6.42;58.30;102229.91;5090408;28;20028;-42
2023/04/05 08:44:44;;;;;;;23.15;17.02;;;;;;;6.46;58.09;102230.25;5089095;28;20124;-42
2023/04/05 08:47:14;;;;;;;24.13;16.40;;;;;;;6.56;56.92;102233.22;5086124;28;20090;-41
2023/04/05 08:49:45;;;;;;;23.98;16.10;;;;;;;6.64;56.41;102230.06;5070472;28;20027;-42
2023/04/05 08:52:11;;;;;;;22.88;15.38;;;;;;;6.69;56.26;102230.19;5073922;28;20112;-42
2023/04/05 08:54:36;;;;;;;22.27;15.35;;;;;;;6.81;56.23;102232.88;5090445;28;20482;-41
2023/04/05 08:57:04;;;;;;;23.45;15.85;;;;;;;6.78;54.76;102224.28;5087559;28;20036;-42
2023/04/05 08:59:34;;;;;;;23.98;15.38;;;;;;;6.83;55.17;102232.59;5070500;28;20039;-43
2023/04/05 09:02:00;;;;;;;21.92;15.48;;;;;;;6.88;55.17;102227.22;5071911;28;20033;-42
2023/04/05 09:04:30;;;;;;;23.27;16.30;;;;;;;6.88;55.98;102221.72;5090749;28;20077;-42
2023/04/05 09:07:02;;;;;;;22.77;15.02;;;;;;;7.01;54.21;102226.06;5089751;28;20036;-43
2023/04/05 09:09:33;;;;;;;21.75;15.82;;;;;;;7.04;54.48;102220.03;5091830;28;20034;-43
2023/04/05 09:12:00;;;;;;;22.48;15.68;;;;;;;7.07;54.12;102225.06;5091643;28;20028;-42
2023/04/05 09:14:28;;;;;;;22.35;14.95;;;;;;;7.17;55.10;102221.66;5091759;28;20473;-42
2023/04/05 09:16:54;;;;;;;21.83;14.77;;;;;;;7.25;52.77;102224.00;5091731;28;20039;-43
2023/04/05 09:19:19;;;;;;;22.85;15.45;;;;;;;7.31;51.64;102220.25;5091429;28;20024;-42
2023/04/05 09:22:06;;;;;;;21.90;14.77;;;;;;;7.28;51.53;102201.47;5091332;28;20089;-43
2023/04/05 09:24:36;;;;;;;22.95;14.57;;;;;;;7.42;50.00;102218.47;5091725;28;20039;-41
2023/04/05 09:27:11;;;;;;;22.92;15.20;;;;;;;7.49;49.41;102221.06;5091624;28;20016;-41
2023/04/05 09:29:39;;;;;;;21.20;14.88;;;;;;;7.57;49.89;102220.63;5091491;28;20485;-42
2023/04/05 09:32:05;;;;;;;22.85;14.82;;;;;;;7.56;47.52;102210.72;5091340;28;20561;-42
2023/04/05 09:34:32;;;;;;;23.88;14.82;;;;;;;7.61;47.94;102213.56;5091547;28;20020;-41
2023/04/05 09:36:58;;;;;;;24.13;15.73;;;;;;;7.65;48.04;102202.84;5091652;28;20341;-42
2023/04/05 09:39:31;;;;;;;22.67;15.68;;;;;;;7.67;47.23;102195.19;5091353;28;20144;-41
2023/04/05 09:42:10;;;;;;;23.63;16.48;;;;;;;7.77;46.48;102211.00;5091454;28;20020;-42
2023/04/05 09:45:04;;;;;;;25.40;16.23;;;;;;;7.78;48.36;102199.75;5091376;28;20040;-42
2023/04/05 09:47:32;;;;;;;23.85;15.95;;;;;;;7.87;46.55;102208.41;5091642;28;20127;-42
2023/04/05 09:49:58;;;;;;;23.00;16.17;;;;;;;7.89;45.33;102208.13;5091463;28;20063;-42
2023/04/05 09:52:26;;;;;;;24.13;16.65;;;;;;;7.88;47.03;102199.06;5091216;28;20473;-41
2023/04/05 09:54:55;;;;;;;23.45;15.65;;;;;;;7.95;46.44;102202.44;5091139;28;20032;-42
2023/04/05 09:57:21;;;;;;;23.38;15.57;;;;;;;8.01;47.33;102195.09;5092904;28;20031;-42
2023/04/05 09:59:47;;;;;;;23.48;15.80;;;;;;;8.09;46.55;102202.09;5094966;28;20036;-42
2023/04/05 10:02:12;;;;;;;21.15;15.15;;;;;;;8.14;44.75;102196.63;5094897;28;20051;-43
2023/04/05 10:04:42;;;;;;;22.33;15.45;;;;;;;8.15;45.06;102198.28;5094927;28;20094;-42
2023/04/05 10:07:14;;;;;;;22.98;16.20;;;;;;;8.16;44.33;102190.88;5094882;28;20386;-42
2023/04/05 10:09:41;;;;;;;20.95;15.02;;;;;;;8.17;44.79;102192.53;5080338;28;20043;-42
2023/04/05 10:12:08;;;;;;;21.33;15.18;;;;;;;8.22;44.51;102182.38;5088549;28;20115;-43
2023/04/05 10:14:35;;;;;;;21.70;14.70;;;;;;;8.27;44.63;102181.59;5092216;28;20819;-43
2023/04/05 10:17:09;;;;;;;21.30;14.80;;;;;;;8.34;45.35;102178.66;5093668;28;20028;-42
2023/04/05 10:19:47;;;;;;;21.65;14.82;;;;;;;8.35;45.02;102166.53;5093478;28;20516;-42
2023/04/05 10:22:23;;;;;;;21.75;15.20;;;;;;;8.46;43.59;102175.75;5093286;28;20032;-43
2023/04/05 10:24:56;;;;;;;21.95;14.45;;;;;;;8.48;44.72;102165.34;5093388;28;20036;-42
2023/04/05 10:28:04;;;;;;;20.45;14.50;;;;;;;8.54;44.93;102169.84;5093694;28;20038;-42
2023/04/05 10:30:35;;;;;;;20.85;14.88;;;;;;;8.54;42.73;102167.06;5009428;28;20058;-43
2023/04/05 10:33:18;;;;;;;21.75;14.80;;;;;;;8.52;43.29;102159.03;5083615;28;20107;-43
2023/04/05 10:35:57;;;;;;;20.40;14.52;;;;;;;8.56;42.41;102156.59;5093264;28;20039;-42
2023/04/05 10:38:25;;;;;;;23.00;14.85;;;;;;;8.62;42.09;102168.50;5093127;28;20125;-42
2023/04/05 10:40:54;;;;;;;22.15;15.13;;;;;;;8.66;43.40;102162.22;5092728;28;20028;-42
2023/04/05 10:43:23;;;;;;;21.48;14.85;;;;;;;8.61;42.21;102153.91;5092760;28;20020;-46
2023/04/05 10:45:52;;;;;;;20.38;13.90;;;;;;;8.76;46.07;102157.88;5092504;28;20036;-43
2023/04/05 10:48:33;;;;;;;22.50;15.10;;;;;;;8.74;42.55;102163.69;5092629;28;20024;-42
2023/04/05 10:50:59;;;;;;;21.65;14.68;;;;;;;8.77;43.16;102160.41;5092882;28;20044;-43
2023/04/05 10:53:24;;;;;;;22.48;14.75;;;;;;;8.80;42.46;102159.84;5093184;28;20031;-43
2023/04/05 10:55:51;;;;;;;21.45;14.85;;;;;;;8.86;44.11;102156.06;5093089;28;20028;-43
2023/04/05 10:58:17;;;;;;;21.95;15.20;;;;;;;8.90;44.51;102150.84;5091676;28;20032;-42
2023/04/05 11:00:44;;;;;;;23.70;14.95;;;;;;;8.98;44.23;102141.25;5092698;28;20023;-43
2023/04/05 11:03:09;;;;;;;21.48;15.07;;;;;;;9.04;43.67;102148.47;5092606;28;20056;-43
2023/04/05 11:05:36;;;;;;;22.80;14.90;;;;;;;9.06;43.08;102143.53;5090825;28;20055;-44
2023/04/05 11:08:04;;;;;;;22.23;15.20;;;;;;;9.04;41.81;102135.50;5093691;28;20034;-43
2023/04/05 11:10:30;;;;;;;21.63;15.20;;;;;;;9.08;40.61;102143.25;5093018;28;20194;-43
2023/04/05 11:12:56;;;;;;;22.80;15.82;;;;;;;9.09;42.10;102136.66;5093671;28;20035;-42
2023/04/05 11:15:24;;;;;;;22.90;16.33;;;;;;;9.07;41.04;102136.06;5092026;28;20020;-43
2023/04/05 11:18:09;;;;;;;21.67;15.65;;;;;;;9.06;42.54;102129.75;5093450;28;20277;-42